• Join FlightAware (Why Join?)
  • Login
  • US Flag 
12:45AM EDT


 

Airport Tracker/Info


-or-


 

Live Flight TrackerFlight Track Log ✈ SWA22 ✈ 08-Apr-2013 ✈ KDAL - KAMA

Flight Track Log - Related Links

Times and Time Zones

All times are in EDT time to prevent confusion due to time zone crossing. See the SWA22 flight status page for this flight to view local times or setup timezone preferences in your user account.

Time Position Orientation Groundspeed Altitude Reporting Facility
EDT Latitude Longitude Course Direction KTS MPH feet Rate Location/Type
02:17PM 32.8333 -96.8333 301° West 145 167 1,800  Level Dallas / Fort Worth TRACON
02:18PM 32.8000 -96.7833 128° Southeast 202 232 4,100 2,340 Climbing Dallas / Fort Worth TRACON
02:19PM 32.7500 -96.7500 151° Southeast 241 277 6,600 1,920 Climbing Dallas / Fort Worth TRACON
02:20PM 32.6833 -96.8000 212° Southwest 266 306 8,000 1,500 Climbing Dallas / Fort Worth TRACON
02:21PM 32.6333 -96.8500 220° Southwest 261 300 9,700 2,400 Climbing Dallas / Fort Worth TRACON
02:22PM 32.6000 -96.9333 245° Southwest 273 314 12,900 2,520 Climbing Dallas / Fort Worth TRACON
02:23PM 33.0817 -97.3134 301° West  Level FlightAware Approximate
02:23PM 32.6500 -97.0167 305° West 329 379 14,900  Level Dallas / Fort Worth TRACON
02:25PM 32.7475 -97.1811 305° West 376 433 19,200 2,520 Climbing Fort Worth Center
02:26PM 32.8167 -97.2922 307° West 376 433 22,000 2,460 Climbing Fort Worth Center
02:27PM 32.8792 -97.3961 306° West 383 441 24,200 2,160 Climbing Fort Worth Center
02:28PM 32.9439 -97.4975 307° West 388 447 26,400 1,800 Climbing Fort Worth Center
02:29PM 33.0106 -97.6017 307° West 394 453 27,900 1,320 Climbing Fort Worth Center
02:30PM 33.0794 -97.7158 306° West 412 474 29,100 1,380 Climbing Fort Worth Center
02:31PM 33.1250 -97.8400 294° West 412 474 30,700 1,740 Climbing Fort Worth Center
02:32PM 33.1661 -97.9644 292° West 412 474 32,600 1,860 Climbing Fort Worth Center
02:33PM 33.2053 -98.0886 291° West 406 467 34,500 1,200 Climbing Fort Worth Center
02:34PM 33.2381 -98.1983 290° West 401 461 35,100 720 Climbing Fort Worth Center
02:35PM 33.2747 -98.3203 290° West 395 455 36,000 420 Climbing Fort Worth Center
02:36PM 33.3114 -98.4400 290° West 386 444 36,000  Level Fort Worth Center
02:37PM 33.3519 -98.5625 292° West 386 444 36,000  Level Fort Worth Center
02:38PM 33.3883 -98.6822 290° West 392 451 36,000  Level Fort Worth Center
02:39PM 33.4267 -98.8072 290° West 392 451 36,000  Level Fort Worth Center
02:40PM 33.4628 -98.9275 290° West 392 451 36,000  Level Fort Worth Center
02:41PM 33.5178 -99.0406 300° West 392 451 36,000  Level Fort Worth Center
02:42PM 33.5875 -99.1464 308° West 397 457 36,000  Level Fort Worth Center
02:43PM 33.6589 -99.2503 310° West 403 464 36,000  Level Fort Worth Center
02:44PM 33.7264 -99.3514 309° West 403 464 36,000  Level Fort Worth Center
02:45PM 33.7956 -99.4581 308° West 397 457 36,000  Level Fort Worth Center
02:46PM 33.8628 -99.5597 309° West 397 457 36,000  Level Fort Worth Center
02:47PM 33.9319 -99.6614 309° West 397 457 36,000  Level Fort Worth Center
02:48PM 33.9989 -99.7658 308° West 402 463 36,000  Level Fort Worth Center
02:49PM 34.0678 -99.8706 308° West 397 457 36,000  Level Fort Worth Center
02:50PM 34.1344 -99.9753 308° West 402 463 36,000  Level Fort Worth Center
02:51PM 34.2033 -100.0728 311° West 397 457 36,000  Level Fort Worth Center
02:52PM 34.2681 -100.1778 307° West 397 457 36,000 -1,980 Level Fort Worth Center
02:54PM 34.4292 -100.4247 308° West 399 459 29,800 -2,640 Descending Albuquerque Center
02:55PM 34.4931 -100.5247 308° West 384 442 27,600 -2,280 Descending Albuquerque Center
02:57PM 34.5567 -100.6231 308° West 374 430 25,200 -2,280 Descending Albuquerque Center
02:58PM 34.6189 -100.7217 307° West 371 427 23,000 -2,160 Descending Albuquerque Center
02:59PM 34.6792 -100.8158 308° West 360 414 20,800 -2,100 Descending Albuquerque Center
03:00PM 34.7381 -100.9067 308° West 347 399 18,700 -2,160 Descending Albuquerque Center
03:01PM 34.7956 -100.9956 308° West 338 389 16,400 -2,340 Descending Albuquerque Center
03:02PM 34.8606 -101.1008 307° West 328 377 14,000 -2,160 Descending Albuquerque Center
03:03PM 34.9139 -101.1844 308° West 318 366 12,000 -1,800 Descending Albuquerque Center
03:04PM 34.9658 -101.2650 308° West 308 354 10,400 -1,560 Descending Albuquerque Center
03:05PM 35.0256 -101.3319 317° Northwest 298 343 8,900 -1,320 Descending Albuquerque Center
03:06PM 35.0806 -101.3994 315° West 289 333 7,700 -1,080 Descending Albuquerque Center
03:07PM 35.1353 -101.4661 315° West 283 326 6,700 -1,020 Descending Albuquerque Center
03:08PM 35.1886 -101.5300 316° Northwest 277 319 5,700 -840 Descending Albuquerque Center
03:09PM 35.2467 -101.6011 315° West 262 302 5,000 -540 Descending Albuquerque Center
03:10PM 35.2606 -101.6525 288° West 203 234 4,600 -600 Descending Albuquerque Center
03:11PM 35.2361 -101.6944 234° Southwest 155 178 3,800 -840 Descending Albuquerque Center
03:13PM 35.2167 -101.7000 219° Southwest  Level FlightAware Approximate